sensor_id;sensor_type;location;lat;lon;timestamp;P1;durP1;ratioP1;P2;durP2;ratioP2
19179;SDS011;9722;48.754;8.868;2024-02-16T00:01:19;4.00;;;3.50;;
19179;SDS011;9722;48.754;8.868;2024-02-16T00:04:39;6.43;;;4.70;;
19179;SDS011;9722;48.754;8.868;2024-02-16T00:08:00;5.13;;;4.63;;
19179;SDS011;9722;48.754;8.868;2024-02-16T00:11:22;4.63;;;4.17;;
19179;SDS011;9722;48.754;8.868;2024-02-16T00:14:43;7.00;;;3.33;;
19179;SDS011;9722;48.754;8.868;2024-02-16T00:18:06;4.07;;;3.63;;
19179;SDS011;9722;48.754;8.868;2024-02-16T00:21:27;4.17;;;3.77;;
19179;SDS011;9722;48.754;8.868;2024-02-16T00:24:47;4.43;;;4.03;;
19179;SDS011;9722;48.754;8.868;2024-02-16T00:28:08;4.00;;;3.60;;
19179;SDS011;9722;48.754;8.868;2024-02-16T00:31:29;4.10;;;3.30;;
19179;SDS011;9722;48.754;8.868;2024-02-16T00:34:50;4.87;;;3.50;;
19179;SDS011;9722;48.754;8.868;2024-02-16T00:38:13;3.60;;;3.03;;
19179;SDS011;9722;48.754;8.868;2024-02-16T00:41:34;2.93;;;2.63;;
19179;SDS011;9722;48.754;8.868;2024-02-16T00:44:54;3.53;;;3.23;;
19179;SDS011;9722;48.754;8.868;2024-02-16T00:48:15;2.33;;;2.13;;
19179;SDS011;9722;48.754;8.868;2024-02-16T00:51:36;2.20;;;2.00;;
19179;SDS011;9722;48.754;8.868;2024-02-16T00:54:57;3.17;;;2.50;;
19179;SDS011;9722;48.754;8.868;2024-02-16T00:58:17;3.03;;;2.53;;
19179;SDS011;9722;48.754;8.868;2024-02-16T01:01:39;2.70;;;2.20;;
19179;SDS011;9722;48.754;8.868;2024-02-16T01:05:00;3.87;;;2.20;;
19179;SDS011;9722;48.754;8.868;2024-02-16T01:08:22;2.83;;;2.10;;
19179;SDS011;9722;48.754;8.868;2024-02-16T01:11:43;2.97;;;2.40;;
19179;SDS011;9722;48.754;8.868;2024-02-16T01:15:03;2.73;;;2.47;;
19179;SDS011;9722;48.754;8.868;2024-02-16T01:18:25;2.23;;;2.03;;
19179;SDS011;9722;48.754;8.868;2024-02-16T01:21:48;3.40;;;3.10;;
19179;SDS011;9722;48.754;8.868;2024-02-16T01:25:12;2.80;;;2.43;;
19179;SDS011;9722;48.754;8.868;2024-02-16T01:28:32;3.67;;;2.90;;
19179;SDS011;9722;48.754;8.868;2024-02-16T01:31:53;2.80;;;2.60;;
19179;SDS011;9722;48.754;8.868;2024-02-16T01:35:13;2.87;;;2.67;;
19179;SDS011;9722;48.754;8.868;2024-02-16T01:38:34;2.77;;;2.50;;
19179;SDS011;9722;48.754;8.868;2024-02-16T01:41:55;2.60;;;2.40;;
19179;SDS011;9722;48.754;8.868;2024-02-16T01:45:15;3.00;;;2.10;;
19179;SDS011;9722;48.754;8.868;2024-02-16T01:48:36;2.27;;;2.07;;
19179;SDS011;9722;48.754;8.868;2024-02-16T01:51:59;3.97;;;1.70;;
19179;SDS011;9722;48.754;8.868;2024-02-16T01:55:20;1.83;;;1.63;;
19179;SDS011;9722;48.754;8.868;2024-02-16T01:58:41;1.60;;;1.50;;
19179;SDS011;9722;48.754;8.868;2024-02-16T02:02:02;1.57;;;1.37;;
19179;SDS011;9722;48.754;8.868;2024-02-16T02:05:23;1.50;;;1.40;;
19179;SDS011;9722;48.754;8.868;2024-02-16T02:08:43;1.27;;;1.17;;
19179;SDS011;9722;48.754;8.868;2024-02-16T02:12:04;2.90;;;1.50;;
19179;SDS011;9722;48.754;8.868;2024-02-16T02:15:24;1.40;;;1.30;;
19179;SDS011;9722;48.754;8.868;2024-02-16T02:18:45;2.10;;;1.73;;
19179;SDS011;9722;48.754;8.868;2024-02-16T02:22:11;1.60;;;1.40;;
19179;SDS011;9722;48.754;8.868;2024-02-16T02:25:34;3.00;;;1.47;;
19179;SDS011;9722;48.754;8.868;2024-02-16T02:28:56;1.50;;;1.40;;
19179;SDS011;9722;48.754;8.868;2024-02-16T02:32:16;1.60;;;1.50;;
19179;SDS011;9722;48.754;8.868;2024-02-16T02:35:37;1.47;;;1.17;;
19179;SDS011;9722;48.754;8.868;2024-02-16T02:38:58;1.67;;;1.43;;
19179;SDS011;9722;48.754;8.868;2024-02-16T02:42:18;1.73;;;1.63;;
19179;SDS011;9722;48.754;8.868;2024-02-16T02:45:39;2.07;;;1.60;;
19179;SDS011;9722;48.754;8.868;2024-02-16T02:49:00;1.50;;;1.40;;
19179;SDS011;9722;48.754;8.868;2024-02-16T02:52:21;1.80;;;1.70;;
19179;SDS011;9722;48.754;8.868;2024-02-16T02:55:41;1.37;;;1.27;;
19179;SDS011;9722;48.754;8.868;2024-02-16T02:59:02;2.20;;;1.90;;
19179;SDS011;9722;48.754;8.868;2024-02-16T03:02:24;1.93;;;1.60;;
19179;SDS011;9722;48.754;8.868;2024-02-16T03:05:46;1.80;;;1.70;;
19179;SDS011;9722;48.754;8.868;2024-02-16T03:09:07;1.70;;;1.60;;
19179;SDS011;9722;48.754;8.868;2024-02-16T03:12:27;1.60;;;1.50;;
19179;SDS011;9722;48.754;8.868;2024-02-16T03:15:48;1.97;;;1.63;;
19179;SDS011;9722;48.754;8.868;2024-02-16T03:19:08;2.40;;;1.60;;
19179;SDS011;9722;48.754;8.868;2024-02-16T03:22:29;2.60;;;1.60;;
19179;SDS011;9722;48.754;8.868;2024-02-16T03:25:50;2.03;;;1.70;;
19179;SDS011;9722;48.754;8.868;2024-02-16T03:29:10;1.97;;;1.77;;
19179;SDS011;9722;48.754;8.868;2024-02-16T03:32:31;1.63;;;1.50;;
19179;SDS011;9722;48.754;8.868;2024-02-16T03:35:52;2.57;;;1.40;;
19179;SDS011;9722;48.754;8.868;2024-02-16T03:39:12;2.60;;;2.10;;
19179;SDS011;9722;48.754;8.868;2024-02-16T03:42:33;2.13;;;1.63;;
19179;SDS011;9722;48.754;8.868;2024-02-16T03:45:54;2.17;;;1.97;;
19179;SDS011;9722;48.754;8.868;2024-02-16T03:49:14;3.73;;;2.00;;
19179;SDS011;9722;48.754;8.868;2024-02-16T03:52:35;3.30;;;1.93;;
19179;SDS011;9722;48.754;8.868;2024-02-16T03:55:56;1.90;;;1.50;;
19179;SDS011;9722;48.754;8.868;2024-02-16T03:59:17;2.70;;;1.83;;
19179;SDS011;9722;48.754;8.868;2024-02-16T04:02:37;2.30;;;2.10;;
19179;SDS011;9722;48.754;8.868;2024-02-16T04:05:59;1.90;;;1.80;;
19179;SDS011;9722;48.754;8.868;2024-02-16T04:09:19;2.13;;;1.73;;
19179;SDS011;9722;48.754;8.868;2024-02-16T04:12:40;1.80;;;1.37;;
19179;SDS011;9722;48.754;8.868;2024-02-16T04:16:00;2.20;;;1.50;;
19179;SDS011;9722;48.754;8.868;2024-02-16T04:19:21;2.20;;;1.87;;
19179;SDS011;9722;48.754;8.868;2024-02-16T04:22:41;1.60;;;1.50;;
19179;SDS011;9722;48.754;8.868;2024-02-16T04:26:02;1.60;;;1.50;;
19179;SDS011;9722;48.754;8.868;2024-02-16T04:29:24;2.13;;;1.40;;
19179;SDS011;9722;48.754;8.868;2024-02-16T04:32:44;1.83;;;1.43;;
19179;SDS011;9722;48.754;8.868;2024-02-16T04:36:06;3.23;;;1.70;;
19179;SDS011;9722;48.754;8.868;2024-02-16T04:39:27;2.80;;;1.87;;
19179;SDS011;9722;48.754;8.868;2024-02-16T04:42:49;2.00;;;1.80;;
19179;SDS011;9722;48.754;8.868;2024-02-16T04:46:13;2.33;;;1.70;;
19179;SDS011;9722;48.754;8.868;2024-02-16T04:49:38;1.73;;;1.63;;
19179;SDS011;9722;48.754;8.868;2024-02-16T04:52:58;1.60;;;1.50;;
19179;SDS011;9722;48.754;8.868;2024-02-16T04:56:21;1.50;;;1.40;;
19179;SDS011;9722;48.754;8.868;2024-02-16T04:59:43;1.50;;;1.40;;
19179;SDS011;9722;48.754;8.868;2024-02-16T05:03:03;2.70;;;1.53;;
19179;SDS011;9722;48.754;8.868;2024-02-16T05:06:24;3.37;;;1.53;;
19179;SDS011;9722;48.754;8.868;2024-02-16T05:09:45;2.27;;;1.47;;
19179;SDS011;9722;48.754;8.868;2024-02-16T05:13:05;2.47;;;1.70;;
19179;SDS011;9722;48.754;8.868;2024-02-16T05:16:27;2.60;;;1.87;;
19179;SDS011;9722;48.754;8.868;2024-02-16T05:19:48;1.80;;;1.40;;
19179;SDS011;9722;48.754;8.868;2024-02-16T05:23:09;1.70;;;1.60;;
19179;SDS011;9722;48.754;8.868;2024-02-16T05:26:30;1.67;;;1.57;;
19179;SDS011;9722;48.754;8.868;2024-02-16T05:29:51;2.03;;;1.60;;
19179;SDS011;9722;48.754;8.868;2024-02-16T05:33:11;1.40;;;1.30;;
19179;SDS011;9722;48.754;8.868;2024-02-16T05:36:33;1.50;;;1.40;;
19179;SDS011;9722;48.754;8.868;2024-02-16T05:39:55;1.67;;;1.57;;
19179;SDS011;9722;48.754;8.868;2024-02-16T05:43:28;1.57;;;1.23;;
19179;SDS011;9722;48.754;8.868;2024-02-16T05:46:49;1.73;;;1.50;;
19179;SDS011;9722;48.754;8.868;2024-02-16T05:50:09;2.40;;;1.70;;
19179;SDS011;9722;48.754;8.868;2024-02-16T05:53:32;1.30;;;1.20;;
19179;SDS011;9722;48.754;8.868;2024-02-16T05:56:53;1.40;;;1.30;;
19179;SDS011;9722;48.754;8.868;2024-02-16T06:00:14;2.47;;;1.37;;
19179;SDS011;9722;48.754;8.868;2024-02-16T06:03:35;1.43;;;1.33;;
19179;SDS011;9722;48.754;8.868;2024-02-16T06:06:55;4.63;;;3.30;;
19179;SDS011;9722;48.754;8.868;2024-02-16T06:10:16;4.87;;;3.93;;
19179;SDS011;9722;48.754;8.868;2024-02-16T06:13:38;3.20;;;2.30;;
19179;SDS011;9722;48.754;8.868;2024-02-16T06:16:59;4.40;;;2.33;;
19179;SDS011;9722;48.754;8.868;2024-02-16T06:20:24;6.17;;;2.23;;
19179;SDS011;9722;48.754;8.868;2024-02-16T06:23:45;1.90;;;1.80;;
19179;SDS011;9722;48.754;8.868;2024-02-16T06:27:06;3.23;;;2.67;;
19179;SDS011;9722;48.754;8.868;2024-02-16T06:30:28;3.80;;;3.07;;
19179;SDS011;9722;48.754;8.868;2024-02-16T06:33:48;2.70;;;2.43;;
19179;SDS011;9722;48.754;8.868;2024-02-16T06:37:09;3.33;;;2.70;;
19179;SDS011;9722;48.754;8.868;2024-02-16T06:40:29;1.87;;;1.77;;
19179;SDS011;9722;48.754;8.868;2024-02-16T06:43:50;1.73;;;1.63;;
19179;SDS011;9722;48.754;8.868;2024-02-16T06:47:10;1.93;;;1.80;;
19179;SDS011;9722;48.754;8.868;2024-02-16T06:50:31;2.03;;;1.87;;
19179;SDS011;9722;48.754;8.868;2024-02-16T06:53:52;1.70;;;1.60;;
19179;SDS011;9722;48.754;8.868;2024-02-16T06:57:13;2.80;;;2.60;;
19179;SDS011;9722;48.754;8.868;2024-02-16T07:00:33;2.10;;;1.63;;
19179;SDS011;9722;48.754;8.868;2024-02-16T07:03:55;6.23;;;3.40;;
19179;SDS011;9722;48.754;8.868;2024-02-16T07:07:15;8.67;;;4.80;;
19179;SDS011;9722;48.754;8.868;2024-02-16T07:10:36;3.97;;;2.87;;
19179;SDS011;9722;48.754;8.868;2024-02-16T07:13:56;3.87;;;3.27;;
19179;SDS011;9722;48.754;8.868;2024-02-16T07:17:19;3.53;;;3.07;;
19179;SDS011;9722;48.754;8.868;2024-02-16T07:20:40;2.87;;;2.50;;
19179;SDS011;9722;48.754;8.868;2024-02-16T07:24:00;4.43;;;2.97;;
19179;SDS011;9722;48.754;8.868;2024-02-16T07:27:22;9.97;;;3.63;;
19179;SDS011;9722;48.754;8.868;2024-02-16T07:30:42;4.17;;;2.77;;
19179;SDS011;9722;48.754;8.868;2024-02-16T07:34:03;3.33;;;2.43;;
19179;SDS011;9722;48.754;8.868;2024-02-16T07:37:23;1.97;;;1.87;;
19179;SDS011;9722;48.754;8.868;2024-02-16T07:40:44;3.27;;;2.23;;
19179;SDS011;9722;48.754;8.868;2024-02-16T07:44:05;2.50;;;2.07;;
19179;SDS011;9722;48.754;8.868;2024-02-16T07:47:26;2.03;;;1.80;;
19179;SDS011;9722;48.754;8.868;2024-02-16T07:50:47;3.07;;;2.47;;
19179;SDS011;9722;48.754;8.868;2024-02-16T07:54:10;4.13;;;2.73;;
19179;SDS011;9722;48.754;8.868;2024-02-16T07:57:30;3.17;;;2.73;;
19179;SDS011;9722;48.754;8.868;2024-02-16T08:00:51;4.43;;;2.57;;
19179;SDS011;9722;48.754;8.868;2024-02-16T08:04:12;2.57;;;2.37;;
19179;SDS011;9722;48.754;8.868;2024-02-16T08:07:32;3.20;;;2.90;;
19179;SDS011;9722;48.754;8.868;2024-02-16T08:10:53;4.80;;;3.10;;
19179;SDS011;9722;48.754;8.868;2024-02-16T08:14:16;3.73;;;3.33;;
19179;SDS011;9722;48.754;8.868;2024-02-16T08:17:37;4.10;;;3.30;;
19179;SDS011;9722;48.754;8.868;2024-02-16T08:20:57;2.43;;;2.23;;
19179;SDS011;9722;48.754;8.868;2024-02-16T08:24:18;3.97;;;3.00;;
19179;SDS011;9722;48.754;8.868;2024-02-16T08:27:39;4.80;;;3.63;;
19179;SDS011;9722;48.754;8.868;2024-02-16T08:30:59;9.07;;;6.90;;
19179;SDS011;9722;48.754;8.868;2024-02-16T08:34:20;9.83;;;8.83;;
19179;SDS011;9722;48.754;8.868;2024-02-16T08:37:41;8.77;;;7.97;;
19179;SDS011;9722;48.754;8.868;2024-02-16T08:41:02;7.37;;;6.63;;
19179;SDS011;9722;48.754;8.868;2024-02-16T08:44:23;3.60;;;3.10;;
19179;SDS011;9722;48.754;8.868;2024-02-16T08:47:44;7.90;;;3.00;;
19179;SDS011;9722;48.754;8.868;2024-02-16T08:51:04;4.63;;;3.07;;
19179;SDS011;9722;48.754;8.868;2024-02-16T08:54:26;3.13;;;2.67;;
19179;SDS011;9722;48.754;8.868;2024-02-16T08:57:46;3.30;;;3.00;;
19179;SDS011;9722;48.754;8.868;2024-02-16T09:01:07;3.73;;;3.43;;
19179;SDS011;9722;48.754;8.868;2024-02-16T09:04:28;3.67;;;3.17;;
19179;SDS011;9722;48.754;8.868;2024-02-16T09:07:48;6.27;;;3.73;;
19179;SDS011;9722;48.754;8.868;2024-02-16T09:11:09;3.37;;;3.07;;
19179;SDS011;9722;48.754;8.868;2024-02-16T09:14:29;6.13;;;3.73;;
19179;SDS011;9722;48.754;8.868;2024-02-16T09:17:52;3.20;;;2.83;;
19179;SDS011;9722;48.754;8.868;2024-02-16T09:21:13;3.67;;;3.10;;
19179;SDS011;9722;48.754;8.868;2024-02-16T09:24:34;4.80;;;2.30;;
19179;SDS011;9722;48.754;8.868;2024-02-16T09:27:54;3.00;;;1.73;;
19179;SDS011;9722;48.754;8.868;2024-02-16T09:31:15;2.30;;;1.97;;
19179;SDS011;9722;48.754;8.868;2024-02-16T09:34:35;1.73;;;1.30;;
19179;SDS011;9722;48.754;8.868;2024-02-16T09:37:56;2.70;;;1.50;;
19179;SDS011;9722;48.754;8.868;2024-02-16T09:41:17;1.07;;;0.83;;
19179;SDS011;9722;48.754;8.868;2024-02-16T09:44:37;1.30;;;1.20;;
19179;SDS011;9722;48.754;8.868;2024-02-16T09:47:59;1.23;;;1.00;;
19179;SDS011;9722;48.754;8.868;2024-02-16T09:51:19;1.23;;;1.13;;
19179;SDS011;9722;48.754;8.868;2024-02-16T09:54:40;2.43;;;1.20;;
19179;SDS011;9722;48.754;8.868;2024-02-16T09:58:01;1.30;;;1.07;;
19179;SDS011;9722;48.754;8.868;2024-02-16T10:01:22;2.00;;;1.40;;
19179;SDS011;9722;48.754;8.868;2024-02-16T10:04:43;1.20;;;1.10;;
19179;SDS011;9722;48.754;8.868;2024-02-16T10:08:11;1.63;;;1.40;;
19179;SDS011;9722;48.754;8.868;2024-02-16T10:11:32;1.37;;;1.27;;
19179;SDS011;9722;48.754;8.868;2024-02-16T10:14:53;2.20;;;1.33;;
19179;SDS011;9722;48.754;8.868;2024-02-16T10:18:15;2.00;;;1.03;;
19179;SDS011;9722;48.754;8.868;2024-02-16T10:21:36;1.33;;;1.20;;
19179;SDS011;9722;48.754;8.868;2024-02-16T10:25:06;1.27;;;1.17;;
19179;SDS011;9722;48.754;8.868;2024-02-16T10:28:32;1.40;;;1.10;;
19179;SDS011;9722;48.754;8.868;2024-02-16T10:31:52;1.60;;;1.20;;
19179;SDS011;9722;48.754;8.868;2024-02-16T10:35:13;2.03;;;1.20;;
19179;SDS011;9722;48.754;8.868;2024-02-16T10:38:36;1.67;;;1.30;;
19179;SDS011;9722;48.754;8.868;2024-02-16T10:41:58;1.70;;;1.60;;
19179;SDS011;9722;48.754;8.868;2024-02-16T10:45:20;1.50;;;1.40;;
19179;SDS011;9722;48.754;8.868;2024-02-16T10:48:41;2.07;;;1.30;;
19179;SDS011;9722;48.754;8.868;2024-02-16T10:52:02;2.43;;;1.40;;
19179;SDS011;9722;48.754;8.868;2024-02-16T10:55:26;2.03;;;1.20;;
19179;SDS011;9722;48.754;8.868;2024-02-16T10:58:47;1.90;;;1.20;;
19179;SDS011;9722;48.754;8.868;2024-02-16T11:02:07;0.87;;;0.87;;
19179;SDS011;9722;48.754;8.868;2024-02-16T11:05:32;1.20;;;1.10;;
19179;SDS011;9722;48.754;8.868;2024-02-16T11:09:01;2.73;;;1.20;;
19179;SDS011;9722;48.754;8.868;2024-02-16T11:12:32;1.60;;;1.10;;
19179;SDS011;9722;48.754;8.868;2024-02-16T11:15:58;1.67;;;1.20;;
19179;SDS011;9722;48.754;8.868;2024-02-16T11:19:23;1.10;;;1.10;;
19179;SDS011;9722;48.754;8.868;2024-02-16T11:22:43;2.50;;;1.00;;
19179;SDS011;9722;48.754;8.868;2024-02-16T11:26:04;1.60;;;1.33;;
19179;SDS011;9722;48.754;8.868;2024-02-16T11:29:31;1.07;;;1.00;;
19179;SDS011;9722;48.754;8.868;2024-02-16T11:32:54;1.57;;;1.47;;
19179;SDS011;9722;48.754;8.868;2024-02-16T11:36:15;1.30;;;1.17;;
19179;SDS011;9722;48.754;8.868;2024-02-16T11:39:39;2.03;;;1.40;;
19179;SDS011;9722;48.754;8.868;2024-02-16T11:43:04;2.73;;;1.60;;
19179;SDS011;9722;48.754;8.868;2024-02-16T11:46:24;3.10;;;1.77;;
19179;SDS011;9722;48.754;8.868;2024-02-16T11:49:46;1.47;;;1.37;;
19179;SDS011;9722;48.754;8.868;2024-02-16T11:53:06;2.60;;;1.50;;
19179;SDS011;9722;48.754;8.868;2024-02-16T11:56:27;2.33;;;1.50;;
19179;SDS011;9722;48.754;8.868;2024-02-16T11:59:49;1.40;;;1.30;;
19179;SDS011;9722;48.754;8.868;2024-02-16T12:03:11;2.33;;;1.40;;
19179;SDS011;9722;48.754;8.868;2024-02-16T12:06:32;2.80;;;1.30;;
19179;SDS011;9722;48.754;8.868;2024-02-16T12:10:02;3.00;;;1.50;;
19179;SDS011;9722;48.754;8.868;2024-02-16T12:13:26;3.47;;;1.50;;
19179;SDS011;9722;48.754;8.868;2024-02-16T12:16:50;3.20;;;1.60;;
19179;SDS011;9722;48.754;8.868;2024-02-16T12:20:12;3.07;;;1.40;;
19179;SDS011;9722;48.754;8.868;2024-02-16T12:23:33;5.73;;;1.40;;
19179;SDS011;9722;48.754;8.868;2024-02-16T12:26:55;1.53;;;1.20;;
19179;SDS011;9722;48.754;8.868;2024-02-16T12:30:16;5.63;;;1.57;;
19179;SDS011;9722;48.754;8.868;2024-02-16T12:33:36;2.83;;;1.70;;
19179;SDS011;9722;48.754;8.868;2024-02-16T12:36:57;4.93;;;2.00;;
19179;SDS011;9722;48.754;8.868;2024-02-16T12:40:17;2.50;;;1.17;;
19179;SDS011;9722;48.754;8.868;2024-02-16T12:43:38;4.77;;;1.47;;
19179;SDS011;9722;48.754;8.868;2024-02-16T12:46:58;2.60;;;1.73;;
19179;SDS011;9722;48.754;8.868;2024-02-16T12:50:19;2.40;;;1.50;;
19179;SDS011;9722;48.754;8.868;2024-02-16T12:53:39;4.57;;;1.40;;
19179;SDS011;9722;48.754;8.868;2024-02-16T12:57:02;3.57;;;1.80;;
19179;SDS011;9722;48.754;8.868;2024-02-16T13:00:24;2.97;;;1.33;;
19179;SDS011;9722;48.754;8.868;2024-02-16T13:03:45;2.40;;;1.10;;
19179;SDS011;9722;48.754;8.868;2024-02-16T13:07:05;2.73;;;1.17;;
19179;SDS011;9722;48.754;8.868;2024-02-16T13:10:26;3.43;;;1.40;;
19179;SDS011;9722;48.754;8.868;2024-02-16T13:13:47;5.60;;;1.30;;
19179;SDS011;9722;48.754;8.868;2024-02-16T13:17:07;3.27;;;1.40;;
19179;SDS011;9722;48.754;8.868;2024-02-16T13:20:28;1.80;;;1.30;;
19179;SDS011;9722;48.754;8.868;2024-02-16T13:23:48;2.80;;;1.30;;
19179;SDS011;9722;48.754;8.868;2024-02-16T13:27:09;3.07;;;1.67;;
19179;SDS011;9722;48.754;8.868;2024-02-16T13:30:29;5.13;;;1.40;;
19179;SDS011;9722;48.754;8.868;2024-02-16T13:33:53;3.20;;;1.60;;
19179;SDS011;9722;48.754;8.868;2024-02-16T13:37:14;3.47;;;1.20;;
19179;SDS011;9722;48.754;8.868;2024-02-16T13:40:34;3.83;;;1.40;;
19179;SDS011;9722;48.754;8.868;2024-02-16T13:43:55;5.07;;;1.40;;
19179;SDS011;9722;48.754;8.868;2024-02-16T13:47:16;4.37;;;1.43;;
19179;SDS011;9722;48.754;8.868;2024-02-16T13:50:36;3.37;;;1.20;;
19179;SDS011;9722;48.754;8.868;2024-02-16T13:53:57;5.90;;;1.90;;
19179;SDS011;9722;48.754;8.868;2024-02-16T13:57:18;2.97;;;1.50;;
19179;SDS011;9722;48.754;8.868;2024-02-16T14:00:39;3.53;;;1.60;;
19179;SDS011;9722;48.754;8.868;2024-02-16T14:04:00;5.53;;;1.97;;
19179;SDS011;9722;48.754;8.868;2024-02-16T14:07:21;3.73;;;1.23;;
19179;SDS011;9722;48.754;8.868;2024-02-16T14:10:41;2.80;;;1.17;;
19179;SDS011;9722;48.754;8.868;2024-02-16T14:14:02;2.67;;;1.30;;
19179;SDS011;9722;48.754;8.868;2024-02-16T14:17:23;3.17;;;1.40;;
19179;SDS011;9722;48.754;8.868;2024-02-16T14:20:43;1.57;;;1.00;;
19179;SDS011;9722;48.754;8.868;2024-02-16T14:24:04;4.00;;;1.37;;
19179;SDS011;9722;48.754;8.868;2024-02-16T14:27:24;4.33;;;1.17;;
19179;SDS011;9722;48.754;8.868;2024-02-16T14:30:45;4.03;;;1.27;;
19179;SDS011;9722;48.754;8.868;2024-02-16T14:34:05;5.10;;;2.40;;
19179;SDS011;9722;48.754;8.868;2024-02-16T14:37:26;2.77;;;1.10;;
19179;SDS011;9722;48.754;8.868;2024-02-16T14:40:48;2.93;;;1.10;;
19179;SDS011;9722;48.754;8.868;2024-02-16T14:44:08;2.60;;;1.47;;
19179;SDS011;9722;48.754;8.868;2024-02-16T14:47:30;3.53;;;1.50;;
19179;SDS011;9722;48.754;8.868;2024-02-16T14:50:51;2.63;;;1.20;;
19179;SDS011;9722;48.754;8.868;2024-02-16T14:54:12;2.10;;;0.80;;
19179;SDS011;9722;48.754;8.868;2024-02-16T14:57:33;2.37;;;1.10;;
19179;SDS011;9722;48.754;8.868;2024-02-16T15:00:53;3.23;;;1.13;;
19179;SDS011;9722;48.754;8.868;2024-02-16T15:04:16;2.37;;;1.20;;
19179;SDS011;9722;48.754;8.868;2024-02-16T15:07:37;2.47;;;0.87;;
19179;SDS011;9722;48.754;8.868;2024-02-16T15:10:57;2.63;;;1.20;;
19179;SDS011;9722;48.754;8.868;2024-02-16T15:14:18;3.57;;;1.27;;
19179;SDS011;9722;48.754;8.868;2024-02-16T15:17:38;2.30;;;1.13;;
19179;SDS011;9722;48.754;8.868;2024-02-16T15:20:59;1.50;;;1.00;;
19179;SDS011;9722;48.754;8.868;2024-02-16T15:24:20;2.10;;;0.87;;
19179;SDS011;9722;48.754;8.868;2024-02-16T15:27:41;1.33;;;0.80;;
19179;SDS011;9722;48.754;8.868;2024-02-16T15:31:01;3.30;;;1.60;;
19179;SDS011;9722;48.754;8.868;2024-02-16T15:34:22;3.17;;;1.30;;
19179;SDS011;9722;48.754;8.868;2024-02-16T15:37:43;3.17;;;1.10;;
19179;SDS011;9722;48.754;8.868;2024-02-16T15:41:05;4.00;;;1.73;;
19179;SDS011;9722;48.754;8.868;2024-02-16T15:44:27;3.17;;;1.00;;
19179;SDS011;9722;48.754;8.868;2024-02-16T15:47:47;2.03;;;0.80;;
19179;SDS011;9722;48.754;8.868;2024-02-16T15:51:08;2.50;;;1.10;;
19179;SDS011;9722;48.754;8.868;2024-02-16T15:54:28;4.30;;;2.30;;
19179;SDS011;9722;48.754;8.868;2024-02-16T15:57:49;5.07;;;3.77;;
19179;SDS011;9722;48.754;8.868;2024-02-16T16:01:09;4.07;;;2.60;;
19179;SDS011;9722;48.754;8.868;2024-02-16T16:04:30;5.30;;;2.30;;
19179;SDS011;9722;48.754;8.868;2024-02-16T16:07:51;3.90;;;2.53;;
19179;SDS011;9722;48.754;8.868;2024-02-16T16:11:12;6.07;;;2.40;;
19179;SDS011;9722;48.754;8.868;2024-02-16T16:14:32;6.37;;;2.80;;
19179;SDS011;9722;48.754;8.868;2024-02-16T16:17:53;11.43;;;4.80;;
19179;SDS011;9722;48.754;8.868;2024-02-16T16:21:13;5.37;;;2.80;;
19179;SDS011;9722;48.754;8.868;2024-02-16T16:24:34;3.47;;;2.00;;
19179;SDS011;9722;48.754;8.868;2024-02-16T16:27:55;2.27;;;1.10;;
19179;SDS011;9722;48.754;8.868;2024-02-16T16:31:15;2.50;;;1.47;;
19179;SDS011;9722;48.754;8.868;2024-02-16T16:34:36;2.90;;;1.53;;
19179;SDS011;9722;48.754;8.868;2024-02-16T16:37:56;2.60;;;1.47;;
19179;SDS011;9722;48.754;8.868;2024-02-16T16:41:17;3.00;;;1.60;;
19179;SDS011;9722;48.754;8.868;2024-02-16T16:44:38;4.30;;;1.67;;
19179;SDS011;9722;48.754;8.868;2024-02-16T16:47:59;2.73;;;1.40;;
19179;SDS011;9722;48.754;8.868;2024-02-16T16:51:19;1.70;;;1.40;;
19179;SDS011;9722;48.754;8.868;2024-02-16T16:54:39;2.87;;;1.23;;
19179;SDS011;9722;48.754;8.868;2024-02-16T16:58:02;1.53;;;1.07;;
19179;SDS011;9722;48.754;8.868;2024-02-16T17:01:22;4.63;;;1.30;;
19179;SDS011;9722;48.754;8.868;2024-02-16T17:04:44;4.97;;;1.37;;
19179;SDS011;9722;48.754;8.868;2024-02-16T17:08:05;2.57;;;1.23;;
19179;SDS011;9722;48.754;8.868;2024-02-16T17:11:26;2.63;;;1.20;;
19179;SDS011;9722;48.754;8.868;2024-02-16T17:14:47;1.67;;;1.10;;
19179;SDS011;9722;48.754;8.868;2024-02-16T17:18:07;1.67;;;1.17;;
19179;SDS011;9722;48.754;8.868;2024-02-16T17:21:28;3.10;;;1.60;;
19179;SDS011;9722;48.754;8.868;2024-02-16T17:24:48;3.30;;;2.93;;
19179;SDS011;9722;48.754;8.868;2024-02-16T17:28:09;3.93;;;2.23;;
19179;SDS011;9722;48.754;8.868;2024-02-16T17:31:29;3.90;;;1.83;;
19179;SDS011;9722;48.754;8.868;2024-02-16T17:34:50;2.30;;;1.30;;
19179;SDS011;9722;48.754;8.868;2024-02-16T17:38:10;3.30;;;1.73;;
19179;SDS011;9722;48.754;8.868;2024-02-16T17:41:31;2.03;;;1.70;;
19179;SDS011;9722;48.754;8.868;2024-02-16T17:44:53;2.33;;;1.40;;
19179;SDS011;9722;48.754;8.868;2024-02-16T17:48:15;1.77;;;1.50;;
19179;SDS011;9722;48.754;8.868;2024-02-16T17:51:35;2.40;;;2.20;;
19179;SDS011;9722;48.754;8.868;2024-02-16T17:54:56;3.50;;;2.20;;
19179;SDS011;9722;48.754;8.868;2024-02-16T17:58:16;3.33;;;1.70;;
19179;SDS011;9722;48.754;8.868;2024-02-16T18:01:37;2.37;;;1.90;;
19179;SDS011;9722;48.754;8.868;2024-02-16T18:05:01;2.60;;;2.40;;
19179;SDS011;9722;48.754;8.868;2024-02-16T18:08:22;3.80;;;1.80;;
19179;SDS011;9722;48.754;8.868;2024-02-16T18:11:43;2.17;;;1.80;;
19179;SDS011;9722;48.754;8.868;2024-02-16T18:15:03;2.37;;;1.77;;
19179;SDS011;9722;48.754;8.868;2024-02-16T18:18:24;2.03;;;1.70;;
19179;SDS011;9722;48.754;8.868;2024-02-16T18:21:46;1.97;;;1.83;;
19179;SDS011;9722;48.754;8.868;2024-02-16T18:25:07;3.63;;;2.00;;
19179;SDS011;9722;48.754;8.868;2024-02-16T18:28:27;3.37;;;2.00;;
19179;SDS011;9722;48.754;8.868;2024-02-16T18:31:48;3.70;;;1.83;;
19179;SDS011;9722;48.754;8.868;2024-02-16T18:35:09;4.83;;;4.43;;
19179;SDS011;9722;48.754;8.868;2024-02-16T18:38:29;4.80;;;4.43;;
19179;SDS011;9722;48.754;8.868;2024-02-16T18:41:50;3.40;;;3.10;;
19179;SDS011;9722;48.754;8.868;2024-02-16T18:45:11;3.70;;;2.87;;
19179;SDS011;9722;48.754;8.868;2024-02-16T18:48:31;3.53;;;2.90;;
19179;SDS011;9722;48.754;8.868;2024-02-16T18:51:53;2.80;;;2.60;;
19179;SDS011;9722;48.754;8.868;2024-02-16T18:55:14;16.17;;;9.37;;
19179;SDS011;9722;48.754;8.868;2024-02-16T18:58:35;6.93;;;4.90;;
19179;SDS011;9722;48.754;8.868;2024-02-16T19:01:55;4.53;;;4.13;;
19179;SDS011;9722;48.754;8.868;2024-02-16T19:05:21;5.90;;;4.47;;
19179;SDS011;9722;48.754;8.868;2024-02-16T19:08:41;6.53;;;5.77;;
19179;SDS011;9722;48.754;8.868;2024-02-16T19:12:02;8.40;;;6.37;;
19179;SDS011;9722;48.754;8.868;2024-02-16T19:15:23;5.07;;;4.30;;
19179;SDS011;9722;48.754;8.868;2024-02-16T19:18:45;6.20;;;3.40;;
19179;SDS011;9722;48.754;8.868;2024-02-16T19:22:06;6.60;;;4.40;;
19179;SDS011;9722;48.754;8.868;2024-02-16T19:25:26;5.13;;;4.63;;
19179;SDS011;9722;48.754;8.868;2024-02-16T19:28:47;6.43;;;5.73;;
19179;SDS011;9722;48.754;8.868;2024-02-16T19:32:08;6.93;;;5.77;;
19179;SDS011;9722;48.754;8.868;2024-02-16T19:35:29;9.63;;;5.03;;
19179;SDS011;9722;48.754;8.868;2024-02-16T19:38:50;10.00;;;8.07;;
19179;SDS011;9722;48.754;8.868;2024-02-16T19:42:11;6.67;;;5.87;;
19179;SDS011;9722;48.754;8.868;2024-02-16T19:45:31;6.27;;;5.67;;
19179;SDS011;9722;48.754;8.868;2024-02-16T19:48:52;6.73;;;6.00;;
19179;SDS011;9722;48.754;8.868;2024-02-16T19:52:12;6.80;;;4.77;;
19179;SDS011;9722;48.754;8.868;2024-02-16T19:55:35;8.00;;;5.43;;
19179;SDS011;9722;48.754;8.868;2024-02-16T19:58:55;5.83;;;5.20;;
19179;SDS011;9722;48.754;8.868;2024-02-16T20:02:16;4.93;;;4.37;;
19179;SDS011;9722;48.754;8.868;2024-02-16T20:05:37;5.07;;;4.60;;
19179;SDS011;9722;48.754;8.868;2024-02-16T20:08:57;4.87;;;4.40;;
19179;SDS011;9722;48.754;8.868;2024-02-16T20:12:18;4.50;;;4.10;;
19179;SDS011;9722;48.754;8.868;2024-02-16T20:15:38;5.33;;;4.93;;
19179;SDS011;9722;48.754;8.868;2024-02-16T20:18:59;4.70;;;4.30;;
19179;SDS011;9722;48.754;8.868;2024-02-16T20:22:19;4.87;;;4.37;;
19179;SDS011;9722;48.754;8.868;2024-02-16T20:25:40;4.53;;;4.13;;
19179;SDS011;9722;48.754;8.868;2024-02-16T20:29:02;5.43;;;4.27;;